sensor_id;sensor_type;location;lat;lon;timestamp;temperature;humidity
69533;DHT22;56729;52.036;5.332;2022-12-18T00:00:18;-2.10;99.90
69533;DHT22;56729;52.036;5.332;2022-12-18T00:01:29;-2.10;99.90
69533;DHT22;56729;52.036;5.332;2022-12-18T00:02:33;-2.10;99.90
69533;DHT22;56729;52.036;5.332;2022-12-18T00:03:35;-2.10;99.90
69533;DHT22;56729;52.036;5.332;2022-12-18T00:04:38;-2.10;99.90
69533;DHT22;56729;52.036;5.332;2022-12-18T00:05:50;-2.10;99.90
69533;DHT22;56729;52.036;5.332;2022-12-18T00:06:53;-2.10;99.90
69533;DHT22;56729;52.036;5.332;2022-12-18T00:07:55;-2.10;99.90
69533;DHT22;56729;52.036;5.332;2022-12-18T00:08:58;-2.10;99.90
69533;DHT22;56729;52.036;5.332;2022-12-18T00:10:01;-2.10;99.90
69533;DHT22;56729;52.036;5.332;2022-12-18T00:11:07;-2.10;99.90
69533;DHT22;56729;52.036;5.332;2022-12-18T00:12:09;-2.10;99.90
69533;DHT22;56729;52.036;5.332;2022-12-18T00:13:16;-2.20;99.90
69533;DHT22;56729;52.036;5.332;2022-12-18T00:14:18;-2.10;99.90
69533;DHT22;56729;52.036;5.332;2022-12-18T00:15:20;-2.20;99.90
69533;DHT22;56729;52.036;5.332;2022-12-18T00:16:24;-2.20;99.90
69533;DHT22;56729;52.036;5.332;2022-12-18T00:17:26;-2.20;99.90
69533;DHT22;56729;52.036;5.332;2022-12-18T00:18:28;-2.20;99.90
69533;DHT22;56729;52.036;5.332;2022-12-18T00:19:30;-2.20;99.90
69533;DHT22;56729;52.036;5.332;2022-12-18T00:20:37;-2.20;99.90
69533;DHT22;56729;52.036;5.332;2022-12-18T00:21:40;-2.20;99.90
69533;DHT22;56729;52.036;5.332;2022-12-18T00:22:42;-2.20;99.90
69533;DHT22;56729;52.036;5.332;2022-12-18T00:23:47;-2.20;99.90
69533;DHT22;56729;52.036;5.332;2022-12-18T00:24:49;-2.20;99.90
69533;DHT22;56729;52.036;5.332;2022-12-18T00:25:52;-2.20;99.90
69533;DHT22;56729;52.036;5.332;2022-12-18T00:26:54;-2.20;99.90
69533;DHT22;56729;52.036;5.332;2022-12-18T00:27:57;-2.20;99.90
69533;DHT22;56729;52.036;5.332;2022-12-18T00:29:11;-2.30;99.90
69533;DHT22;56729;52.036;5.332;2022-12-18T00:30:15;-2.30;99.90
69533;DHT22;56729;52.036;5.332;2022-12-18T00:31:20;-2.20;99.90
69533;DHT22;56729;52.036;5.332;2022-12-18T00:32:22;-2.30;99.90
69533;DHT22;56729;52.036;5.332;2022-12-18T00:33:24;-2.30;99.90
69533;DHT22;56729;52.036;5.332;2022-12-18T00:34:26;-2.30;99.90
69533;DHT22;56729;52.036;5.332;2022-12-18T00:35:28;-2.30;99.90
69533;DHT22;56729;52.036;5.332;2022-12-18T00:36:32;-2.30;99.90
69533;DHT22;56729;52.036;5.332;2022-12-18T00:37:35;-2.30;99.90
69533;DHT22;56729;52.036;5.332;2022-12-18T00:38:39;-2.30;99.90
69533;DHT22;56729;52.036;5.332;2022-12-18T00:39:41;-2.30;99.90
69533;DHT22;56729;52.036;5.332;2022-12-18T00:40:43;-2.30;99.90
69533;DHT22;56729;52.036;5.332;2022-12-18T00:41:46;-2.30;99.90
69533;DHT22;56729;52.036;5.332;2022-12-18T00:43:09;-2.30;99.90
69533;DHT22;56729;52.036;5.332;2022-12-18T00:44:14;-2.30;99.90
69533;DHT22;56729;52.036;5.332;2022-12-18T00:45:16;-2.30;99.90
69533;DHT22;56729;52.036;5.332;2022-12-18T00:46:18;-2.30;99.90
69533;DHT22;56729;52.036;5.332;2022-12-18T00:47:20;-2.30;99.90
69533;DHT22;56729;52.036;5.332;2022-12-18T00:48:22;-2.30;99.90
69533;DHT22;56729;52.036;5.332;2022-12-18T00:49:24;-2.30;99.90
69533;DHT22;56729;52.036;5.332;2022-12-18T00:50:26;-2.30;99.90
69533;DHT22;56729;52.036;5.332;2022-12-18T00:51:28;-2.30;99.90
69533;DHT22;56729;52.036;5.332;2022-12-18T00:52:30;-2.40;99.90
69533;DHT22;56729;52.036;5.332;2022-12-18T00:53:32;-2.30;99.90
69533;DHT22;56729;52.036;5.332;2022-12-18T00:54:34;-2.30;99.90
69533;DHT22;56729;52.036;5.332;2022-12-18T00:55:38;-2.30;99.90
69533;DHT22;56729;52.036;5.332;2022-12-18T00:56:40;-2.30;99.90
69533;DHT22;56729;52.036;5.332;2022-12-18T00:57:52;-2.30;99.90
69533;DHT22;56729;52.036;5.332;2022-12-18T00:58:54;-2.30;99.90
69533;DHT22;56729;52.036;5.332;2022-12-18T00:59:56;-2.30;99.90
69533;DHT22;56729;52.036;5.332;2022-12-18T01:00:59;-2.30;99.90
69533;DHT22;56729;52.036;5.332;2022-12-18T01:02:01;-2.20;99.90
69533;DHT22;56729;52.036;5.332;2022-12-18T01:03:03;-2.20;99.90
69533;DHT22;56729;52.036;5.332;2022-12-18T01:04:06;-2.20;99.90
69533;DHT22;56729;52.036;5.332;2022-12-18T01:05:09;-2.20;99.90
69533;DHT22;56729;52.036;5.332;2022-12-18T01:06:13;-2.20;99.90
69533;DHT22;56729;52.036;5.332;2022-12-18T01:07:17;-2.20;99.90
69533;DHT22;56729;52.036;5.332;2022-12-18T01:08:19;-2.20;99.90
69533;DHT22;56729;52.036;5.332;2022-12-18T01:09:21;-2.20;99.90
69533;DHT22;56729;52.036;5.332;2022-12-18T01:10:26;-2.20;99.90
69533;DHT22;56729;52.036;5.332;2022-12-18T01:11:31;-2.30;99.90
69533;DHT22;56729;52.036;5.332;2022-12-18T01:12:36;-2.20;99.90
69533;DHT22;56729;52.036;5.332;2022-12-18T01:13:39;-2.20;99.90
69533;DHT22;56729;52.036;5.332;2022-12-18T01:14:42;-2.30;99.90
69533;DHT22;56729;52.036;5.332;2022-12-18T01:15:49;-2.30;99.90
69533;DHT22;56729;52.036;5.332;2022-12-18T01:16:51;-2.30;99.90
69533;DHT22;56729;52.036;5.332;2022-12-18T01:17:53;-2.30;99.90
69533;DHT22;56729;52.036;5.332;2022-12-18T01:18:55;-2.40;99.90
69533;DHT22;56729;52.036;5.332;2022-12-18T01:19:57;-2.40;99.90
69533;DHT22;56729;52.036;5.332;2022-12-18T01:21:00;-2.40;99.90
69533;DHT22;56729;52.036;5.332;2022-12-18T01:22:03;-2.40;99.90
69533;DHT22;56729;52.036;5.332;2022-12-18T01:23:05;-2.40;99.90
69533;DHT22;56729;52.036;5.332;2022-12-18T01:24:11;-2.50;99.90
69533;DHT22;56729;52.036;5.332;2022-12-18T01:25:14;-2.50;99.90
69533;DHT22;56729;52.036;5.332;2022-12-18T01:26:17;-2.50;99.90
69533;DHT22;56729;52.036;5.332;2022-12-18T01:27:19;-2.50;99.90
69533;DHT22;56729;52.036;5.332;2022-12-18T01:28:21;-2.50;99.90
69533;DHT22;56729;52.036;5.332;2022-12-18T01:29:23;-2.50;99.90
69533;DHT22;56729;52.036;5.332;2022-12-18T01:30:25;-2.50;99.90
69533;DHT22;56729;52.036;5.332;2022-12-18T01:31:30;-2.50;99.90
69533;DHT22;56729;52.036;5.332;2022-12-18T01:32:33;-2.50;99.90
69533;DHT22;56729;52.036;5.332;2022-12-18T01:33:36;-2.50;99.90
69533;DHT22;56729;52.036;5.332;2022-12-18T01:34:40;-2.40;99.90
69533;DHT22;56729;52.036;5.332;2022-12-18T01:35:42;-2.50;99.90
69533;DHT22;56729;52.036;5.332;2022-12-18T01:36:44;-2.50;99.90
69533;DHT22;56729;52.036;5.332;2022-12-18T01:37:46;-2.50;99.90
69533;DHT22;56729;52.036;5.332;2022-12-18T01:38:50;-2.50;99.90
69533;DHT22;56729;52.036;5.332;2022-12-18T01:39:53;-2.50;99.90
69533;DHT22;56729;52.036;5.332;2022-12-18T01:41:00;-2.50;99.90
69533;DHT22;56729;52.036;5.332;2022-12-18T01:42:03;-2.50;99.90
69533;DHT22;56729;52.036;5.332;2022-12-18T01:43:05;-2.50;99.90
69533;DHT22;56729;52.036;5.332;2022-12-18T01:45:47;-2.50;99.90
69533;DHT22;56729;52.036;5.332;2022-12-18T01:46:52;-2.50;99.90
69533;DHT22;56729;52.036;5.332;2022-12-18T01:48:04;-2.50;99.90
69533;DHT22;56729;52.036;5.332;2022-12-18T01:49:07;-2.50;99.90
69533;DHT22;56729;52.036;5.332;2022-12-18T01:50:18;-2.50;99.90
69533;DHT22;56729;52.036;5.332;2022-12-18T01:51:27;-2.60;99.90
69533;DHT22;56729;52.036;5.332;2022-12-18T01:52:31;-2.60;99.90
69533;DHT22;56729;52.036;5.332;2022-12-18T01:53:34;-2.60;99.90
69533;DHT22;56729;52.036;5.332;2022-12-18T01:54:38;-2.60;99.90
69533;DHT22;56729;52.036;5.332;2022-12-18T01:55:48;-2.60;99.90
69533;DHT22;56729;52.036;5.332;2022-12-18T01:56:52;-2.70;99.90
69533;DHT22;56729;52.036;5.332;2022-12-18T01:57:56;-2.70;99.90
69533;DHT22;56729;52.036;5.332;2022-12-18T01:59:05;-2.70;99.90
69533;DHT22;56729;52.036;5.332;2022-12-18T02:00:11;-2.70;99.90
69533;DHT22;56729;52.036;5.332;2022-12-18T02:01:16;-2.80;99.90
69533;DHT22;56729;52.036;5.332;2022-12-18T02:02:20;-2.80;99.90
69533;DHT22;56729;52.036;5.332;2022-12-18T02:03:22;-2.80;99.90
69533;DHT22;56729;52.036;5.332;2022-12-18T02:04:26;-2.80;99.90
69533;DHT22;56729;52.036;5.332;2022-12-18T02:07:33;-2.90;99.90
69533;DHT22;56729;52.036;5.332;2022-12-18T02:08:50;-2.90;99.90
69533;DHT22;56729;52.036;5.332;2022-12-18T02:11:58;-3.00;99.90
69533;DHT22;56729;52.036;5.332;2022-12-18T02:12:59;-3.00;99.90
69533;DHT22;56729;52.036;5.332;2022-12-18T02:15:41;-3.00;99.90
69533;DHT22;56729;52.036;5.332;2022-12-18T02:16:52;-3.00;99.90
69533;DHT22;56729;52.036;5.332;2022-12-18T02:18:01;-3.00;99.90
69533;DHT22;56729;52.036;5.332;2022-12-18T02:21:12;-3.10;99.90
69533;DHT22;56729;52.036;5.332;2022-12-18T02:24:21;-3.10;99.90
69533;DHT22;56729;52.036;5.332;2022-12-18T02:27:02;-3.10;99.90
69533;DHT22;56729;52.036;5.332;2022-12-18T02:28:09;-3.10;99.90
69533;DHT22;56729;52.036;5.332;2022-12-18T02:29:18;-3.10;99.90
69533;DHT22;56729;52.036;5.332;2022-12-18T02:30:22;-3.20;99.90
69533;DHT22;56729;52.036;5.332;2022-12-18T02:31:29;-3.20;99.90
69533;DHT22;56729;52.036;5.332;2022-12-18T02:32:42;-3.10;99.90
69533;DHT22;56729;52.036;5.332;2022-12-18T02:33:45;-3.20;99.90
69533;DHT22;56729;52.036;5.332;2022-12-18T02:34:48;-3.20;99.90
69533;DHT22;56729;52.036;5.332;2022-12-18T02:35:54;-3.20;99.90
69533;DHT22;56729;52.036;5.332;2022-12-18T02:37:03;-3.20;99.90
69533;DHT22;56729;52.036;5.332;2022-12-18T02:38:07;-3.30;99.90
69533;DHT22;56729;52.036;5.332;2022-12-18T02:39:12;-3.20;99.90
69533;DHT22;56729;52.036;5.332;2022-12-18T02:40:26;-3.30;99.90
69533;DHT22;56729;52.036;5.332;2022-12-18T02:41:30;-3.30;99.90
69533;DHT22;56729;52.036;5.332;2022-12-18T02:42:32;-3.30;99.90
69533;DHT22;56729;52.036;5.332;2022-12-18T02:43:35;-3.30;99.90
69533;DHT22;56729;52.036;5.332;2022-12-18T02:44:46;-3.30;99.90
69533;DHT22;56729;52.036;5.332;2022-12-18T02:45:57;-3.30;99.90
69533;DHT22;56729;52.036;5.332;2022-12-18T02:47:01;-3.30;99.90
69533;DHT22;56729;52.036;5.332;2022-12-18T02:48:04;-3.30;99.90
69533;DHT22;56729;52.036;5.332;2022-12-18T02:54:46;-3.40;99.90
69533;DHT22;56729;52.036;5.332;2022-12-18T02:56:31;-3.40;99.90
69533;DHT22;56729;52.036;5.332;2022-12-18T02:57:58;-3.40;99.90
69533;DHT22;56729;52.036;5.332;2022-12-18T02:59:19;-3.40;99.90
69533;DHT22;56729;52.036;5.332;2022-12-18T03:01:55;-3.40;99.90
69533;DHT22;56729;52.036;5.332;2022-12-18T03:03:14;-3.40;99.90
69533;DHT22;56729;52.036;5.332;2022-12-18T03:04:26;-3.40;99.90
69533;DHT22;56729;52.036;5.332;2022-12-18T03:05:48;-3.40;99.90
69533;DHT22;56729;52.036;5.332;2022-12-18T03:07:04;-3.40;99.90
69533;DHT22;56729;52.036;5.332;2022-12-18T03:08:22;-3.50;99.90
69533;DHT22;56729;52.036;5.332;2022-12-18T03:09:37;-3.50;99.90
69533;DHT22;56729;52.036;5.332;2022-12-18T03:11:02;-3.50;99.90
69533;DHT22;56729;52.036;5.332;2022-12-18T03:12:29;-3.50;99.90
69533;DHT22;56729;52.036;5.332;2022-12-18T03:13:46;-3.50;99.90
69533;DHT22;56729;52.036;5.332;2022-12-18T03:16:10;-3.50;99.90
69533;DHT22;56729;52.036;5.332;2022-12-18T03:17:16;-3.50;99.90
69533;DHT22;56729;52.036;5.332;2022-12-18T03:19:33;-3.50;99.90
69533;DHT22;56729;52.036;5.332;2022-12-18T03:20:39;-3.50;99.90
69533;DHT22;56729;52.036;5.332;2022-12-18T03:21:53;-3.50;99.90
69533;DHT22;56729;52.036;5.332;2022-12-18T03:23:04;-3.50;99.90
69533;DHT22;56729;52.036;5.332;2022-12-18T03:24:11;-3.50;99.90
69533;DHT22;56729;52.036;5.332;2022-12-18T03:25:15;-3.50;99.90
69533;DHT22;56729;52.036;5.332;2022-12-18T03:26:22;-3.50;99.90
69533;DHT22;56729;52.036;5.332;2022-12-18T03:27:31;-3.50;99.90
69533;DHT22;56729;52.036;5.332;2022-12-18T03:28:42;-3.50;99.90
69533;DHT22;56729;52.036;5.332;2022-12-18T03:29:49;-3.50;99.90
69533;DHT22;56729;52.036;5.332;2022-12-18T03:31:00;-3.50;99.90
69533;DHT22;56729;52.036;5.332;2022-12-18T03:32:18;-3.50;99.90
69533;DHT22;56729;52.036;5.332;2022-12-18T03:33:29;-3.50;99.90
69533;DHT22;56729;52.036;5.332;2022-12-18T03:34:35;-3.50;99.90
69533;DHT22;56729;52.036;5.332;2022-12-18T03:35:42;-3.50;99.90
69533;DHT22;56729;52.036;5.332;2022-12-18T03:36:46;-3.50;99.90
69533;DHT22;56729;52.036;5.332;2022-12-18T03:37:49;-3.50;99.90
69533;DHT22;56729;52.036;5.332;2022-12-18T03:38:52;-3.50;99.90
69533;DHT22;56729;52.036;5.332;2022-12-18T03:39:56;-3.50;99.90
69533;DHT22;56729;52.036;5.332;2022-12-18T03:40:59;-3.50;99.90
69533;DHT22;56729;52.036;5.332;2022-12-18T03:44:14;-3.60;99.90
69533;DHT22;56729;52.036;5.332;2022-12-18T03:45:32;-3.60;99.90
69533;DHT22;56729;52.036;5.332;2022-12-18T03:46:41;-3.60;99.90
69533;DHT22;56729;52.036;5.332;2022-12-18T03:49:23;-3.60;99.90
69533;DHT22;56729;52.036;5.332;2022-12-18T03:51:39;-3.70;99.90
69533;DHT22;56729;52.036;5.332;2022-12-18T03:52:54;-3.70;99.90
69533;DHT22;56729;52.036;5.332;2022-12-18T03:54:01;-3.70;99.90
69533;DHT22;56729;52.036;5.332;2022-12-18T03:55:09;-3.70;99.90
69533;DHT22;56729;52.036;5.332;2022-12-18T03:56:13;-3.70;99.90
69533;DHT22;56729;52.036;5.332;2022-12-18T03:57:23;-3.70;99.90
69533;DHT22;56729;52.036;5.332;2022-12-18T03:58:29;-3.70;99.90
69533;DHT22;56729;52.036;5.332;2022-12-18T03:59:46;-3.70;99.90
69533;DHT22;56729;52.036;5.332;2022-12-18T04:00:54;-3.70;99.90
69533;DHT22;56729;52.036;5.332;2022-12-18T04:01:58;-3.70;99.90
69533;DHT22;56729;52.036;5.332;2022-12-18T04:03:02;-3.70;99.90
69533;DHT22;56729;52.036;5.332;2022-12-18T04:04:14;-3.70;99.90
69533;DHT22;56729;52.036;5.332;2022-12-18T04:05:20;-3.80;99.90
69533;DHT22;56729;52.036;5.332;2022-12-18T04:06:23;-3.70;99.90
69533;DHT22;56729;52.036;5.332;2022-12-18T04:07:27;-3.80;99.90
69533;DHT22;56729;52.036;5.332;2022-12-18T04:08:32;-3.80;99.90
69533;DHT22;56729;52.036;5.332;2022-12-18T04:09:39;-3.80;99.90
69533;DHT22;56729;52.036;5.332;2022-12-18T04:10:42;-3.80;99.90
69533;DHT22;56729;52.036;5.332;2022-12-18T04:11:46;-3.80;99.90
69533;DHT22;56729;52.036;5.332;2022-12-18T04:12:50;-3.80;99.90
69533;DHT22;56729;52.036;5.332;2022-12-18T04:13:56;-3.80;99.90
69533;DHT22;56729;52.036;5.332;2022-12-18T04:14:59;-3.80;99.90
69533;DHT22;56729;52.036;5.332;2022-12-18T04:16:01;-3.80;99.90
69533;DHT22;56729;52.036;5.332;2022-12-18T04:17:03;-3.90;99.90
69533;DHT22;56729;52.036;5.332;2022-12-18T04:18:07;-3.90;99.90
69533;DHT22;56729;52.036;5.332;2022-12-18T04:19:13;-3.90;99.90
69533;DHT22;56729;52.036;5.332;2022-12-18T04:20:18;-3.90;99.90
69533;DHT22;56729;52.036;5.332;2022-12-18T04:21:20;-3.90;99.90
69533;DHT22;56729;52.036;5.332;2022-12-18T04:22:23;-3.90;99.90
69533;DHT22;56729;52.036;5.332;2022-12-18T04:23:31;-3.90;99.90
69533;DHT22;56729;52.036;5.332;2022-12-18T04:24:33;-3.90;99.90
69533;DHT22;56729;52.036;5.332;2022-12-18T04:25:42;-3.90;99.90
69533;DHT22;56729;52.036;5.332;2022-12-18T04:26:49;-3.90;99.90
69533;DHT22;56729;52.036;5.332;2022-12-18T04:27:56;-3.90;99.90
69533;DHT22;56729;52.036;5.332;2022-12-18T04:28:58;-3.90;99.90
69533;DHT22;56729;52.036;5.332;2022-12-18T04:30:01;-3.90;99.90
69533;DHT22;56729;52.036;5.332;2022-12-18T04:31:05;-3.90;99.90
69533;DHT22;56729;52.036;5.332;2022-12-18T04:32:09;-3.90;99.90
69533;DHT22;56729;52.036;5.332;2022-12-18T04:33:13;-3.90;99.90
69533;DHT22;56729;52.036;5.332;2022-12-18T04:34:18;-3.90;99.90
69533;DHT22;56729;52.036;5.332;2022-12-18T04:35:26;-3.90;99.90
69533;DHT22;56729;52.036;5.332;2022-12-18T04:36:29;-3.90;99.90
69533;DHT22;56729;52.036;5.332;2022-12-18T04:37:32;-3.90;99.90
69533;DHT22;56729;52.036;5.332;2022-12-18T04:38:40;-3.90;99.90
69533;DHT22;56729;52.036;5.332;2022-12-18T04:39:46;-3.90;99.90
69533;DHT22;56729;52.036;5.332;2022-12-18T04:40:55;-3.90;99.90
69533;DHT22;56729;52.036;5.332;2022-12-18T04:42:00;-3.90;99.90
69533;DHT22;56729;52.036;5.332;2022-12-18T04:43:04;-3.90;99.90
69533;DHT22;56729;52.036;5.332;2022-12-18T04:44:06;-4.00;99.90
69533;DHT22;56729;52.036;5.332;2022-12-18T04:45:08;-4.00;99.90
69533;DHT22;56729;52.036;5.332;2022-12-18T04:46:10;-3.90;99.90
69533;DHT22;56729;52.036;5.332;2022-12-18T04:47:13;-3.90;99.90
69533;DHT22;56729;52.036;5.332;2022-12-18T04:48:14;-3.90;99.90
69533;DHT22;56729;52.036;5.332;2022-12-18T04:49:17;-4.00;99.90
69533;DHT22;56729;52.036;5.332;2022-12-18T04:50:19;-4.00;99.90
69533;DHT22;56729;52.036;5.332;2022-12-18T04:51:21;-4.00;99.90
69533;DHT22;56729;52.036;5.332;2022-12-18T04:52:27;-3.90;99.90
69533;DHT22;56729;52.036;5.332;2022-12-18T04:53:32;-4.00;99.90
69533;DHT22;56729;52.036;5.332;2022-12-18T04:54:34;-4.00;99.90
69533;DHT22;56729;52.036;5.332;2022-12-18T04:55:36;-4.00;99.90
69533;DHT22;56729;52.036;5.332;2022-12-18T04:56:39;-4.00;99.90
69533;DHT22;56729;52.036;5.332;2022-12-18T04:57:41;-4.00;99.90
69533;DHT22;56729;52.036;5.332;2022-12-18T04:58:44;-4.00;99.90
69533;DHT22;56729;52.036;5.332;2022-12-18T04:59:46;-4.00;99.90
69533;DHT22;56729;52.036;5.332;2022-12-18T05:00:47;-4.00;99.90
69533;DHT22;56729;52.036;5.332;2022-12-18T05:01:50;-4.00;99.90
69533;DHT22;56729;52.036;5.332;2022-12-18T05:02:52;-4.00;99.90
69533;DHT22;56729;52.036;5.332;2022-12-18T05:03:54;-4.00;99.90
69533;DHT22;56729;52.036;5.332;2022-12-18T05:04:56;-4.00;99.90
69533;DHT22;56729;52.036;5.332;2022-12-18T05:05:58;-4.00;99.90
69533;DHT22;56729;52.036;5.332;2022-12-18T05:07:00;-4.00;99.90
69533;DHT22;56729;52.036;5.332;2022-12-18T05:08:02;-4.00;99.90
69533;DHT22;56729;52.036;5.332;2022-12-18T05:09:04;-4.00;99.90
69533;DHT22;56729;52.036;5.332;2022-12-18T05:10:06;-4.00;99.90
69533;DHT22;56729;52.036;5.332;2022-12-18T05:11:11;-4.00;99.90
69533;DHT22;56729;52.036;5.332;2022-12-18T05:12:13;-4.00;99.90
69533;DHT22;56729;52.036;5.332;2022-12-18T05:13:15;-4.00;99.90
69533;DHT22;56729;52.036;5.332;2022-12-18T05:14:17;-4.00;99.90
69533;DHT22;56729;52.036;5.332;2022-12-18T05:15:19;-4.00;99.90
69533;DHT22;56729;52.036;5.332;2022-12-18T05:16:21;-4.00;99.90
69533;DHT22;56729;52.036;5.332;2022-12-18T05:17:24;-4.00;99.90
69533;DHT22;56729;52.036;5.332;2022-12-18T05:18:27;-4.00;99.90
69533;DHT22;56729;52.036;5.332;2022-12-18T05:19:28;-4.00;99.90
69533;DHT22;56729;52.036;5.332;2022-12-18T05:20:31;-4.00;99.90
69533;DHT22;56729;52.036;5.332;2022-12-18T05:21:33;-4.00;99.90
69533;DHT22;56729;52.036;5.332;2022-12-18T05:22:35;-4.00;99.90
69533;DHT22;56729;52.036;5.332;2022-12-18T05:23:37;-4.00;99.90
69533;DHT22;56729;52.036;5.332;2022-12-18T05:24:40;-4.00;99.90
69533;DHT22;56729;52.036;5.332;2022-12-18T05:25:42;-4.00;99.90
69533;DHT22;56729;52.036;5.332;2022-12-18T05:26:46;-4.00;99.90
69533;DHT22;56729;52.036;5.332;2022-12-18T05:27:49;-4.00;99.90
69533;DHT22;56729;52.036;5.332;2022-12-18T05:28:50;-4.00;99.90
69533;DHT22;56729;52.036;5.332;2022-12-18T05:29:52;-4.00;99.90
69533;DHT22;56729;52.036;5.332;2022-12-18T05:30:56;-4.00;99.90
69533;DHT22;56729;52.036;5.332;2022-12-18T05:31:59;-4.00;99.90
69533;DHT22;56729;52.036;5.332;2022-12-18T05:33:01;-4.00;99.90
69533;DHT22;56729;52.036;5.332;2022-12-18T05:34:03;-4.00;99.90
69533;DHT22;56729;52.036;5.332;2022-12-18T05:35:07;-4.00;99.90
69533;DHT22;56729;52.036;5.332;2022-12-18T05:36:09;-4.00;99.90
69533;DHT22;56729;52.036;5.332;2022-12-18T05:37:11;-4.00;99.90
69533;DHT22;56729;52.036;5.332;2022-12-18T05:38:14;-4.00;99.90
69533;DHT22;56729;52.036;5.332;2022-12-18T05:39:16;-4.00;99.90
69533;DHT22;56729;52.036;5.332;2022-12-18T05:40:17;-4.00;99.90
69533;DHT22;56729;52.036;5.332;2022-12-18T05:41:20;-4.00;99.90
69533;DHT22;56729;52.036;5.332;2022-12-18T05:42:22;-4.00;99.90
69533;DHT22;56729;52.036;5.332;2022-12-18T05:43:24;-4.00;99.90
69533;DHT22;56729;52.036;5.332;2022-12-18T05:44:27;-4.00;99.90
69533;DHT22;56729;52.036;5.332;2022-12-18T05:45:29;-4.00;99.90
69533;DHT22;56729;52.036;5.332;2022-12-18T05:46:32;-4.00;99.90
69533;DHT22;56729;52.036;5.332;2022-12-18T05:47:34;-4.00;99.90
69533;DHT22;56729;52.036;5.332;2022-12-18T05:48:37;-4.00;99.90
69533;DHT22;56729;52.036;5.332;2022-12-18T05:49:39;-4.00;99.90
69533;DHT22;56729;52.036;5.332;2022-12-18T05:50:43;-4.00;99.90
69533;DHT22;56729;52.036;5.332;2022-12-18T05:51:47;-4.00;99.90
69533;DHT22;56729;52.036;5.332;2022-12-18T05:52:49;-4.00;99.90
69533;DHT22;56729;52.036;5.332;2022-12-18T05:53:50;-4.00;99.90
69533;DHT22;56729;52.036;5.332;2022-12-18T05:54:53;-4.00;99.90
69533;DHT22;56729;52.036;5.332;2022-12-18T05:56:00;-4.00;99.90
69533;DHT22;56729;52.036;5.332;2022-12-18T05:57:02;-4.10;99.90
69533;DHT22;56729;52.036;5.332;2022-12-18T05:58:06;-4.00;99.90
69533;DHT22;56729;52.036;5.332;2022-12-18T05:59:08;-4.10;99.90
69533;DHT22;56729;52.036;5.332;2022-12-18T06:00:11;-4.00;99.90
69533;DHT22;56729;52.036;5.332;2022-12-18T06:01:16;-4.00;99.90
69533;DHT22;56729;52.036;5.332;2022-12-18T06:02:18;-4.00;99.90
69533;DHT22;56729;52.036;5.332;2022-12-18T06:03:23;-4.10;99.90
69533;DHT22;56729;52.036;5.332;2022-12-18T06:04:33;-4.10;99.90
69533;DHT22;56729;52.036;5.332;2022-12-18T06:05:38;-4.10;99.90
69533;DHT22;56729;52.036;5.332;2022-12-18T06:06:40;-4.10;99.90
69533;DHT22;56729;52.036;5.332;2022-12-18T06:07:42;-4.10;99.90
69533;DHT22;56729;52.036;5.332;2022-12-18T06:08:44;-4.10;99.90
69533;DHT22;56729;52.036;5.332;2022-12-18T06:09:47;-4.10;99.90
69533;DHT22;56729;52.036;5.332;2022-12-18T06:10:51;-4.10;99.90
69533;DHT22;56729;52.036;5.332;2022-12-18T06:11:54;-4.10;99.90
69533;DHT22;56729;52.036;5.332;2022-12-18T06:12:56;-4.10;99.90
69533;DHT22;56729;52.036;5.332;2022-12-18T06:13:58;-4.10;99.90
69533;DHT22;56729;52.036;5.332;2022-12-18T06:15:01;-4.10;99.90
69533;DHT22;56729;52.036;5.332;2022-12-18T06:16:06;-4.10;99.90
69533;DHT22;56729;52.036;5.332;2022-12-18T06:17:09;-4.10;99.90
69533;DHT22;56729;52.036;5.332;2022-12-18T06:18:11;-4.10;99.90
69533;DHT22;56729;52.036;5.332;2022-12-18T06:19:15;-4.10;99.90
69533;DHT22;56729;52.036;5.332;2022-12-18T06:20:17;-4.10;99.90
69533;DHT22;56729;52.036;5.332;2022-12-18T06:21:19;-4.10;99.90
69533;DHT22;56729;52.036;5.332;2022-12-18T06:22:21;-4.10;99.90
69533;DHT22;56729;52.036;5.332;2022-12-18T06:23:23;-4.10;99.90
69533;DHT22;56729;52.036;5.332;2022-12-18T06:24:26;-4.10;99.90
69533;DHT22;56729;52.036;5.332;2022-12-18T06:25:28;-4.10;99.90
69533;DHT22;56729;52.036;5.332;2022-12-18T06:26:30;-4.10;99.90
69533;DHT22;56729;52.036;5.332;2022-12-18T06:27:32;-4.20;99.90
69533;DHT22;56729;52.036;5.332;2022-12-18T06:28:36;-4.10;99.90
69533;DHT22;56729;52.036;5.332;2022-12-18T06:29:38;-4.10;99.90
69533;DHT22;56729;52.036;5.332;2022-12-18T06:30:43;-4.20;99.90
69533;DHT22;56729;52.036;5.332;2022-12-18T06:31:45;-4.20;99.90
69533;DHT22;56729;52.036;5.332;2022-12-18T06:32:50;-4.20;99.90
69533;DHT22;56729;52.036;5.332;2022-12-18T06:33:57;-4.20;99.90
69533;DHT22;56729;52.036;5.332;2022-12-18T06:34:59;-4.20;99.90
69533;DHT22;56729;52.036;5.332;2022-12-18T06:36:06;-4.10;99.90
69533;DHT22;56729;52.036;5.332;2022-12-18T06:37:09;-4.10;99.90
69533;DHT22;56729;52.036;5.332;2022-12-18T06:38:11;-4.20;99.90
69533;DHT22;56729;52.036;5.332;2022-12-18T06:39:13;-4.10;99.90
69533;DHT22;56729;52.036;5.332;2022-12-18T06:40:15;-4.20;99.90
69533;DHT22;56729;52.036;5.332;2022-12-18T06:41:19;-4.10;99.90
69533;DHT22;56729;52.036;5.332;2022-12-18T06:42:21;-4.10;99.90
69533;DHT22;56729;52.036;5.332;2022-12-18T06:43:23;-4.20;99.90
69533;DHT22;56729;52.036;5.332;2022-12-18T06:44:25;-4.20;99.90
69533;DHT22;56729;52.036;5.332;2022-12-18T06:45:27;-4.10;99.90
69533;DHT22;56729;52.036;5.332;2022-12-18T06:46:30;-4.20;99.90
69533;DHT22;56729;52.036;5.332;2022-12-18T06:47:33;-4.10;99.90
69533;DHT22;56729;52.036;5.332;2022-12-18T06:48:36;-4.20;99.90
69533;DHT22;56729;52.036;5.332;2022-12-18T06:49:37;-4.20;99.90
69533;DHT22;56729;52.036;5.332;2022-12-18T06:50:42;-4.20;99.90
69533;DHT22;56729;52.036;5.332;2022-12-18T06:51:44;-4.10;99.90
69533;DHT22;56729;52.036;5.332;2022-12-18T06:52:46;-4.20;99.90
69533;DHT22;56729;52.036;5.332;2022-12-18T06:53:48;-4.20;99.90
69533;DHT22;56729;52.036;5.332;2022-12-18T06:54:50;-4.20;99.90
69533;DHT22;56729;52.036;5.332;2022-12-18T06:55:52;-4.10;99.90
69533;DHT22;56729;52.036;5.332;2022-12-18T06:56:57;-4.20;99.90
69533;DHT22;56729;52.036;5.332;2022-12-18T06:57:59;-4.20;99.90
69533;DHT22;56729;52.036;5.332;2022-12-18T06:59:00;-4.20;99.90
69533;DHT22;56729;52.036;5.332;2022-12-18T07:00:05;-4.10;99.90
69533;DHT22;56729;52.036;5.332;2022-12-18T07:01:09;-4.20;99.90
69533;DHT22;56729;52.036;5.332;2022-12-18T07:02:12;-4.20;99.90
69533;DHT22;56729;52.036;5.332;2022-12-18T07:03:14;-4.20;99.90
69533;DHT22;56729;52.036;5.332;2022-12-18T07:04:16;-4.20;99.90
69533;DHT22;56729;52.036;5.332;2022-12-18T07:05:19;-4.20;99.90
69533;DHT22;56729;52.036;5.332;2022-12-18T07:06:24;-4.20;99.90
69533;DHT22;56729;52.036;5.332;2022-12-18T07:07:26;-4.20;99.90
69533;DHT22;56729;52.036;5.332;2022-12-18T07:08:29;-4.20;99.90
69533;DHT22;56729;52.036;5.332;2022-12-18T07:09:31;-4.20;99.90
69533;DHT22;56729;52.036;5.332;2022-12-18T07:10:39;-4.20;99.90
69533;DHT22;56729;52.036;5.332;2022-12-18T07:11:47;-4.20;99.90
69533;DHT22;56729;52.036;5.332;2022-12-18T07:12:49;-4.20;99.90
69533;DHT22;56729;52.036;5.332;2022-12-18T07:13:52;-4.20;99.90
69533;DHT22;56729;52.036;5.332;2022-12-18T07:14:54;-4.20;99.90
69533;DHT22;56729;52.036;5.332;2022-12-18T07:16:24;-4.20;99.90